Aviation Digital Data Service (ADDS)

Output produced by METARs form (1611 UTC 01 August 2015)
found at http://aviationweather.gov/adds/metars/
 
KPBG 011517Z 0115/0212 24009KT P6SM VCSH BKN080 
     TEMPO 0115/0116 -TSRA BKN050CB 
     FM020000 22003KT P6SM SCT080